Skip Navigation LinksHome page > Weather > Current weather Skip Navigation Links

Current Weather

Ronald Reagan Washington National, Washington

For information only: do not use for flight planning or navigation.
Latest weather
Observation time Wednesday, April 1, 2015 12:52 PM EDT
Local time Wednesday, April 1, 2015 1:49 PM EDT
Flight conditions Visual Meteorological Conditions
Winds
Wind direction Northwest (310°)
Wind speed 7 mph
Visibility 10 mi.
Sky condition
Ceiling unlimited
Sky clear
Temperature 55°F
Dewpoint 27°F
Altimeter 30.17 in.Hg
Derived measurements
Relative humidity 34%
Density altitude -450 ft.
Sea-level pressure 30.16 in.Hg
Remarks
Automated weather observing station with precipitation discriminator.
METAR KDCA 011652Z 31006KT 10SM CLR 13/M03 A3017 RMK AO2 SLP215 T01281028

Settings

Location code

InnerDrive.Weather 4.0.5567.0 Release CLR 4.0.30319.34014
Copyright ©2015 Inner Drive Technology. All rights reserved. Portions Copyright ©1986-2015 David Braverman.

Find weather

Site navigation


Skip Navigation Links

Place info

Page info

PayPal - The safer, easier way to pay online!

Return home.

Copyright ©2015 Inner Drive Technology. Purveyors of fine, hand-crafted computer software. Page printed 2015-04-01T17:49:36 UTC.